Time;durP1;ratioP1;P1;durP2;ratioP2;P2;SDS_P1;SDS_P2;PMS_P1;PMS_P2;Temp;Humidity;BMP_temperature;BMP_pressure;BME280_temperature;BME280_humidity;BME280_pressure;Samples;Min_cycle;Max_cycle;Signal;HPM_P1;HPM_P2
2024/01/14 00:00:09;;;;;;;1999.90;999.90;;;-4.50;96.40;;;;;;4987076;28;20117;-73
2024/01/14 00:02:38;;;;;;;1999.90;999.90;;;-4.50;96.60;;;;;;4983862;28;20025;-73
2024/01/14 00:05:06;;;;;;;1999.90;999.90;;;-4.40;96.50;;;;;;4969495;28;20026;-72
2024/01/14 00:07:31;;;;;;;1999.90;999.90;;;-4.50;96.40;;;;;;4983373;28;20670;-73
2024/01/14 00:09:58;;;;;;;1999.90;999.90;;;-4.50;96.50;;;;;;4956083;28;20152;-72
2024/01/14 00:12:30;;;;;;;1999.90;999.90;;;-4.60;96.40;;;;;;4987663;28;20073;-73
2024/01/14 00:14:56;;;;;;;1999.90;999.90;;;-4.60;96.40;;;;;;4983901;28;20033;-72
2024/01/14 00:17:22;;;;;;;1999.90;999.90;;;-4.60;96.40;;;;;;4981645;28;20059;-74
2024/01/14 00:19:48;;;;;;;1999.90;999.90;;;-4.70;96.40;;;;;;4987239;28;20547;-72
2024/01/14 00:22:16;;;;;;;1999.90;999.90;;;-4.70;96.40;;;;;;4964135;28;20489;-73
2024/01/14 00:24:42;;;;;;;1999.90;999.90;;;-4.70;96.50;;;;;;4986825;28;20234;-72
2024/01/14 00:27:07;;;;;;;1999.90;999.90;;;-4.70;96.40;;;;;;4982746;28;20040;-72
2024/01/14 00:29:36;;;;;;;1999.90;999.90;;;-4.60;96.40;;;;;;4988209;28;20168;-73
2024/01/14 00:32:02;;;;;;;1999.90;999.90;;;-4.60;96.40;;;;;;4983557;28;20037;-72
2024/01/14 00:34:28;;;;;;;1999.90;999.90;;;-4.60;96.30;;;;;;4982154;28;20070;-73
2024/01/14 00:36:53;;;;;;;1999.90;999.90;;;-4.50;96.30;;;;;;4988746;28;20115;-72
2024/01/14 00:39:19;;;;;;;1999.90;999.90;;;-4.50;96.30;;;;;;4987877;28;20093;-73
2024/01/14 00:41:45;;;;;;;1999.90;999.90;;;-4.60;96.20;;;;;;4985966;28;20035;-72
2024/01/14 00:44:10;;;;;;;1999.90;999.90;;;-4.50;96.20;;;;;;4979994;28;20042;-72
2024/01/14 00:46:37;;;;;;;1999.90;999.90;;;-4.60;96.00;;;;;;4967405;28;20038;-73
2024/01/14 00:49:03;;;;;;;1999.90;999.90;;;-4.60;96.00;;;;;;4977036;28;20034;-73
2024/01/14 00:51:28;;;;;;;1999.90;999.90;;;-4.50;96.20;;;;;;4973318;28;20061;-73
2024/01/14 00:53:54;;;;;;;1999.90;999.90;;;-4.50;96.30;;;;;;4991554;28;20546;-73
2024/01/14 00:56:20;;;;;;;1999.90;999.90;;;-4.50;96.20;;;;;;4984971;28;20065;-73
2024/01/14 00:58:45;;;;;;;1999.90;999.90;;;-4.50;96.30;;;;;;4981902;28;20041;-73
2024/01/14 01:01:11;;;;;;;1999.90;999.90;;;-4.50;96.20;;;;;;4982682;28;20397;-73
2024/01/14 01:03:37;;;;;;;1999.90;999.90;;;-4.50;96.00;;;;;;4983529;28;20122;-72
2024/01/14 01:06:03;;;;;;;1999.90;999.90;;;-4.50;96.00;;;;;;4988016;28;20415;-73
2024/01/14 01:08:28;;;;;;;1999.90;999.90;;;-4.50;96.20;;;;;;4983231;28;20039;-73
2024/01/14 01:10:54;;;;;;;1999.90;999.90;;;-4.50;96.30;;;;;;4987034;28;20128;-73
2024/01/14 01:13:19;;;;;;;1999.90;999.90;;;-4.50;96.20;;;;;;4991066;28;20266;-73
2024/01/14 01:15:45;;;;;;;1999.90;999.90;;;-4.60;96.20;;;;;;4992223;28;20061;-73
2024/01/14 01:18:11;;;;;;;1999.90;999.90;;;-4.60;96.20;;;;;;4986649;28;21558;-73
2024/01/14 01:20:36;;;;;;;1999.90;999.90;;;-4.70;96.00;;;;;;4980665;28;21734;-73
2024/01/14 01:23:02;;;;;;;1999.90;999.90;;;-4.80;96.20;;;;;;4984900;28;20038;-73
2024/01/14 01:25:28;;;;;;;1999.90;999.90;;;-4.80;96.20;;;;;;4967546;28;20044;-73
2024/01/14 01:27:54;;;;;;;1999.90;999.90;;;-4.80;96.30;;;;;;4982314;28;20026;-73
2024/01/14 01:30:20;;;;;;;1999.90;999.90;;;-4.80;96.20;;;;;;4969425;28;20416;-73
2024/01/14 01:32:46;;;;;;;1999.90;999.90;;;-4.80;96.20;;;;;;4985395;28;20044;-73
2024/01/14 01:35:13;;;;;;;1999.90;999.90;;;-4.80;96.30;;;;;;4983749;28;20041;-73
2024/01/14 01:37:39;;;;;;;1999.90;999.90;;;-4.80;96.40;;;;;;4963454;28;20039;-73
2024/01/14 01:40:05;;;;;;;1999.90;999.90;;;-4.80;96.40;;;;;;4983983;28;20076;-73
2024/01/14 01:42:34;;;;;;;1999.90;999.90;;;-4.70;96.40;;;;;;4981256;28;20069;-73
2024/01/14 01:45:00;;;;;;;1999.90;999.90;;;-4.70;96.40;;;;;;4984952;28;20095;-73
2024/01/14 01:47:25;;;;;;;1999.90;999.90;;;-4.70;96.50;;;;;;4983246;28;20044;-73
2024/01/14 01:49:51;;;;;;;1999.90;999.90;;;-4.70;96.50;;;;;;4986468;28;20150;-73
2024/01/14 01:52:17;;;;;;;1999.90;999.90;;;-4.70;96.50;;;;;;4983370;28;20077;-73
2024/01/14 01:54:44;;;;;;;1999.90;999.90;;;-4.70;96.60;;;;;;4983980;28;20046;-73
2024/01/14 01:57:12;;;;;;;1999.90;999.90;;;-4.60;96.60;;;;;;4969315;28;20066;-73
2024/01/14 01:59:39;;;;;;;1999.90;999.90;;;-4.60;96.70;;;;;;4983772;28;20034;-73
2024/01/14 02:02:05;;;;;;;1999.90;999.90;;;-4.60;96.70;;;;;;4980176;28;20113;-73
2024/01/14 02:04:31;;;;;;;1999.90;999.90;;;-4.60;96.70;;;;;;4983151;28;20117;-73
2024/01/14 02:06:58;;;;;;;1999.90;999.90;;;-4.50;96.70;;;;;;4987411;28;20778;-73
2024/01/14 02:09:24;;;;;;;1999.90;999.90;;;-4.50;96.80;;;;;;4985683;28;20104;-72
2024/01/14 02:11:51;;;;;;;1999.90;999.90;;;-4.50;96.70;;;;;;4984128;28;20121;-73
2024/01/14 02:14:18;;;;;;;1999.90;999.90;;;-4.50;96.80;;;;;;4984859;28;20116;-73
2024/01/14 02:16:43;;;;;;;1999.90;999.90;;;-4.50;96.80;;;;;;4987551;28;20042;-73
2024/01/14 02:19:09;;;;;;;1999.90;999.90;;;-4.50;96.80;;;;;;4984868;28;20030;-73
2024/01/14 02:21:44;;;;;;;1999.90;999.90;;;-4.40;96.70;;;;;;4982929;28;20031;-73
2024/01/14 02:24:27;;;;;;;1999.90;999.90;;;-4.50;96.60;;;;;;4981081;28;20081;-73
2024/01/14 02:26:53;;;;;;;1999.90;999.90;;;-4.40;96.70;;;;;;4984768;28;20034;-73
2024/01/14 02:29:22;;;;;;;1999.90;999.90;;;-4.40;96.60;;;;;;4962501;28;20042;-73
2024/01/14 02:31:48;;;;;;;1999.90;999.90;;;-4.40;96.80;;;;;;4985928;28;20034;-73
2024/01/14 02:34:15;;;;;;;1999.90;999.90;;;-4.40;96.60;;;;;;4984674;28;20033;-74
2024/01/14 02:36:41;;;;;;;1999.90;999.90;;;-4.40;96.70;;;;;;4967690;28;20468;-73
2024/01/14 02:39:07;;;;;;;1999.90;999.90;;;-4.40;96.70;;;;;;4982130;28;20041;-72
2024/01/14 02:41:33;;;;;;;1999.90;999.90;;;-4.40;96.70;;;;;;4981526;28;20030;-73
2024/01/14 02:43:59;;;;;;;1999.90;999.90;;;-4.50;96.60;;;;;;4982121;28;20037;-72
2024/01/14 02:46:25;;;;;;;1999.90;999.90;;;-4.50;96.70;;;;;;4986305;28;20405;-73
2024/01/14 02:48:51;;;;;;;1999.90;999.90;;;-4.50;96.70;;;;;;4988635;28;20045;-73
2024/01/14 02:51:17;;;;;;;1999.90;999.90;;;-4.60;96.70;;;;;;4982980;28;20030;-73
2024/01/14 02:53:43;;;;;;;1999.90;999.90;;;-4.60;96.70;;;;;;4984773;28;20035;-73
2024/01/14 02:56:10;;;;;;;1999.90;999.90;;;-4.60;96.50;;;;;;4969122;28;20516;-73
2024/01/14 02:58:36;;;;;;;1999.90;999.90;;;-4.60;96.80;;;;;;4984426;28;20035;-73
2024/01/14 03:01:04;;;;;;;1999.90;999.90;;;-4.60;96.80;;;;;;4987773;28;20057;-74
2024/01/14 03:03:30;;;;;;;1999.90;999.90;;;-4.50;96.80;;;;;;4986695;28;20539;-73
2024/01/14 03:05:55;;;;;;;1999.90;999.90;;;-4.50;96.90;;;;;;4961288;28;20034;-73
2024/01/14 03:08:21;;;;;;;1999.90;999.90;;;-4.50;96.80;;;;;;4989492;28;20042;-73
2024/01/14 03:10:48;;;;;;;1999.90;999.90;;;-4.50;96.90;;;;;;4987181;28;20171;-73
2024/01/14 03:13:15;;;;;;;1999.90;999.90;;;-4.50;96.80;;;;;;4985464;28;20521;-73
2024/01/14 03:15:45;;;;;;;1999.90;999.90;;;-4.50;96.70;;;;;;4988756;28;20065;-73
2024/01/14 03:18:15;;;;;;;1999.90;999.90;;;-4.50;96.80;;;;;;4987213;28;20060;-73
2024/01/14 03:20:41;;;;;;;;;;;-4.50;96.70;;;;;;4991505;28;20410;-73
2024/01/14 03:23:07;;;;;;;1999.90;999.90;;;-4.60;96.80;;;;;;4988866;28;19920;-73
2024/01/14 03:25:33;;;;;;;1999.90;999.90;;;-4.60;96.80;;;;;;4989188;28;20034;-73
2024/01/14 03:27:59;;;;;;;1999.90;999.90;;;-4.50;96.80;;;;;;4987495;28;20033;-73
2024/01/14 03:30:25;;;;;;;1999.90;999.90;;;-4.50;96.90;;;;;;4991405;28;20030;-73
2024/01/14 03:32:50;;;;;;;1999.90;999.90;;;-4.50;96.90;;;;;;4990815;28;20091;-73
2024/01/14 03:35:16;;;;;;;1999.90;999.90;;;-4.50;96.80;;;;;;4988244;28;20228;-71
2024/01/14 03:37:41;;;;;;;1999.90;999.90;;;-4.50;96.80;;;;;;4987141;28;20445;-72
2024/01/14 03:40:09;;;;;;;1999.90;999.90;;;-4.50;96.80;;;;;;4986582;28;20361;-71
2024/01/14 03:42:35;;;;;;;1999.90;999.90;;;-4.60;96.80;;;;;;4989372;28;20035;-73
2024/01/14 03:45:01;;;;;;;1999.90;999.90;;;-4.60;96.90;;;;;;4989474;28;20036;-71
2024/01/14 03:47:27;;;;;;;1999.90;999.90;;;-4.60;97.00;;;;;;4966538;28;20133;-71
2024/01/14 03:49:52;;;;;;;1999.90;999.90;;;-4.60;97.00;;;;;;4990743;28;20559;-71
2024/01/14 03:52:18;;;;;;;1999.90;999.90;;;-4.50;97.10;;;;;;4987622;28;20097;-71
2024/01/14 03:54:44;;;;;;;1999.90;999.90;;;-4.50;97.10;;;;;;4991914;28;20089;-71
2024/01/14 03:57:09;;;;;;;1999.90;999.90;;;-4.40;97.00;;;;;;4972117;28;20027;-71
2024/01/14 03:59:35;;;;;;;1999.90;999.90;;;-4.40;97.10;;;;;;4989601;28;20535;-72
2024/01/14 04:02:01;;;;;;;1999.90;999.90;;;-4.40;97.10;;;;;;4973117;28;20030;-72
2024/01/14 04:04:27;;;;;;;1999.90;999.90;;;-4.40;97.10;;;;;;4990958;28;20034;-72
2024/01/14 04:06:53;;;;;;;1999.90;999.90;;;-4.40;97.10;;;;;;4992867;28;20385;-72
2024/01/14 04:09:19;;;;;;;1999.90;999.90;;;-4.40;97.00;;;;;;4994642;28;20034;-73
2024/01/14 04:11:46;;;;;;;1999.90;999.90;;;-4.40;97.00;;;;;;4991998;28;20448;-72
2024/01/14 04:14:12;;;;;;;1999.90;999.90;;;-4.40;97.00;;;;;;4992449;28;20035;-72
2024/01/14 04:16:40;;;;;;;1999.90;999.90;;;-4.40;97.00;;;;;;4991519;28;20089;-72
2024/01/14 04:19:06;;;;;;;1999.90;999.90;;;-4.50;97.00;;;;;;4986981;28;20520;-72
2024/01/14 04:21:32;;;;;;;1999.90;999.90;;;-4.40;97.00;;;;;;4982826;28;20033;-72
2024/01/14 04:24:04;;;;;;;1999.90;999.90;;;-4.40;97.00;;;;;;4988462;28;20026;-72
2024/01/14 04:26:30;;;;;;;1999.90;999.90;;;-4.30;96.90;;;;;;4982885;28;20030;-71
2024/01/14 04:28:56;;;;;;;1999.90;999.90;;;-4.30;97.00;;;;;;4988213;28;20042;-72
2024/01/14 04:31:22;;;;;;;1999.90;999.90;;;-4.30;97.40;;;;;;4986672;28;20101;-72
2024/01/14 04:33:48;;;;;;;1999.90;999.90;;;-4.30;97.00;;;;;;4987697;28;20430;-71
2024/01/14 04:36:17;;;;;;;1999.90;999.90;;;-4.30;97.10;;;;;;4970632;28;20058;-71
2024/01/14 04:38:46;;;;;;;1999.90;999.90;;;-4.30;97.00;;;;;;4982132;28;20445;-72
2024/01/14 04:41:11;;;;;;;1999.90;999.90;;;-4.40;97.00;;;;;;4985137;28;20057;-71
2024/01/14 04:43:37;;;;;;;1999.90;999.90;;;-4.30;97.10;;;;;;4964983;28;20069;-71
2024/01/14 04:46:06;;;;;;;1999.90;999.90;;;-4.30;97.10;;;;;;4969191;28;20061;-71
2024/01/14 04:48:32;;;;;;;1999.90;999.90;;;-4.20;97.10;;;;;;4978383;28;20397;-71
2024/01/14 04:50:58;;;;;;;1999.90;999.90;;;-4.20;97.20;;;;;;4990018;28;20030;-72
2024/01/14 04:53:23;;;;;;;1999.90;999.90;;;-4.20;97.20;;;;;;4985238;28;20556;-72
2024/01/14 04:55:49;;;;;;;1999.90;999.90;;;-4.20;97.20;;;;;;4987603;28;20078;-71
2024/01/14 04:58:15;;;;;;;1999.90;999.90;;;-4.20;97.10;;;;;;4985009;28;21413;-72
2024/01/14 05:00:40;;;;;;;1999.90;999.90;;;-4.30;97.00;;;;;;4990964;28;20022;-71
2024/01/14 05:03:06;;;;;;;1999.90;999.90;;;-4.30;97.00;;;;;;4988232;28;20285;-68
2024/01/14 05:05:32;;;;;;;1999.90;999.90;;;-4.30;97.00;;;;;;4989274;28;20022;-68
2024/01/14 05:07:58;;;;;;;1999.90;999.90;;;-4.30;97.00;;;;;;4968593;28;20463;-68
2024/01/14 05:10:24;;;;;;;1999.90;999.90;;;-4.20;97.20;;;;;;4969076;28;20039;-71
2024/01/14 05:12:50;;;;;;;1999.90;999.90;;;-4.10;97.10;;;;;;4986670;28;20505;-72
2024/01/14 05:15:15;;;;;;;1999.90;999.90;;;-3.90;97.00;;;;;;4983955;28;20141;-72
2024/01/14 05:17:41;;;;;;;1999.90;999.90;;;-3.90;97.00;;;;;;4984936;28;20396;-70
2024/01/14 05:20:08;;;;;;;1999.90;999.90;;;-3.90;96.90;;;;;;4988886;28;20097;-72
2024/01/14 05:22:34;;;;;;;1999.90;999.90;;;-3.90;96.90;;;;;;4972526;28;20045;-72
2024/01/14 05:25:00;;;;;;;1999.90;999.90;;;-3.90;96.90;;;;;;4976403;28;20468;-71
2024/01/14 05:27:28;;;;;;;1999.90;999.90;;;-4.00;96.70;;;;;;4990549;28;20697;-68
2024/01/14 05:29:54;;;;;;;1999.90;999.90;;;-4.00;96.70;;;;;;4988248;28;20153;-68
2024/01/14 05:32:21;;;;;;;1999.90;999.90;;;-4.10;96.60;;;;;;4991828;28;20111;-78
2024/01/14 05:34:46;;;;;;;1999.90;999.90;;;-4.10;96.60;;;;;;4961985;28;20048;-79
2024/01/14 05:37:34;;;;;;;1999.90;999.90;;;-4.00;96.70;;;;;;4993884;28;20109;-79
2024/01/14 05:40:04;;;;;;;1999.90;999.90;;;-3.80;96.20;;;;;;4997059;28;20034;-82
2024/01/14 05:42:31;;;;;;;1999.90;999.90;;;-3.90;96.00;;;;;;4993440;28;20035;-76
2024/01/14 05:44:56;;;;;;;1999.90;999.90;;;-3.90;96.40;;;;;;4965756;28;20034;-73
2024/01/14 05:47:34;;;;;;;1999.90;999.90;;;-3.90;96.20;;;;;;4984811;28;20533;-74
2024/01/14 05:50:00;;;;;;;1999.90;999.90;;;-3.90;96.10;;;;;;4986709;28;20034;-74
2024/01/14 05:52:26;;;;;;;1999.90;999.90;;;-4.00;96.30;;;;;;4986153;28;20031;-73
2024/01/14 05:54:52;;;;;;;1999.90;999.90;;;-3.90;96.30;;;;;;4969584;28;20177;-74
2024/01/14 05:57:17;;;;;;;1999.90;999.90;;;-3.90;96.10;;;;;;4984866;28;20038;-74
2024/01/14 05:59:43;;;;;;;1999.90;999.90;;;-3.90;96.10;;;;;;4986616;28;20505;-74
2024/01/14 06:02:09;;;;;;;1999.90;999.90;;;-3.80;95.90;;;;;;4976246;28;20085;-74
2024/01/14 06:04:35;;;;;;;1999.90;999.90;;;-3.80;96.00;;;;;;4966575;28;20616;-75
2024/01/14 06:07:01;;;;;;;1999.90;999.90;;;-3.70;95.70;;;;;;4974193;28;20125;-74
2024/01/14 06:09:27;;;;;;;1999.90;999.90;;;-3.80;95.70;;;;;;4971103;28;20383;-74
2024/01/14 06:11:53;;;;;;;1999.90;999.90;;;-3.90;95.90;;;;;;4970107;28;20034;-74
2024/01/14 06:14:18;;;;;;;1999.90;999.90;;;-4.00;95.50;;;;;;4984845;28;20049;-74
2024/01/14 06:16:44;;;;;;;1999.90;999.90;;;-4.00;95.50;;;;;;4953462;28;20598;-74
2024/01/14 06:19:10;;;;;;;1999.90;999.90;;;-4.00;95.20;;;;;;4953781;28;20106;-75
2024/01/14 06:21:42;;;;;;;1999.90;999.90;;;-4.00;95.10;;;;;;4973542;28;20187;-74
2024/01/14 06:24:09;;;;;;;1999.90;999.90;;;-3.90;95.30;;;;;;4974270;28;20436;-74
2024/01/14 06:26:35;;;;;;;1999.90;999.90;;;-3.90;95.40;;;;;;4989291;28;20053;-75
2024/01/14 06:29:01;;;;;;;1999.90;999.90;;;-3.90;95.30;;;;;;4989922;28;20057;-74
2024/01/14 06:31:26;;;;;;;1999.90;999.90;;;-4.10;94.80;;;;;;4971368;28;20042;-74
2024/01/14 06:33:52;;;;;;;1999.90;999.90;;;-4.10;94.90;;;;;;4969173;28;20392;-76
2024/01/14 06:36:19;;;;;;;1999.90;999.90;;;-4.20;94.70;;;;;;4990804;28;20034;-74
2024/01/14 06:38:45;;;;;;;1999.90;999.90;;;-4.20;94.50;;;;;;4975147;28;20057;-74
2024/01/14 06:41:18;;;;;;;1999.90;999.90;;;-4.10;94.80;;;;;;4977236;28;20134;-75
2024/01/14 06:43:43;;;;;;;1999.90;999.90;;;-4.10;94.60;;;;;;4976474;28;20702;-75
2024/01/14 06:46:09;;;;;;;1999.90;999.90;;;-4.10;94.10;;;;;;4992182;28;20066;-74
2024/01/14 06:48:35;;;;;;;1999.90;999.90;;;-4.20;94.50;;;;;;4975035;28;20041;-74
2024/01/14 06:51:01;;;;;;;1999.90;999.90;;;-4.30;94.40;;;;;;4990393;28;20044;-74
2024/01/14 06:53:27;;;;;;;1999.90;999.90;;;-4.40;94.60;;;;;;4976351;28;20582;-74
2024/01/14 06:55:53;;;;;;;1999.90;999.90;;;-4.40;94.50;;;;;;4976163;28;20058;-75
2024/01/14 06:58:18;;;;;;;1999.90;999.90;;;-4.30;94.70;;;;;;4994865;28;20094;-75
2024/01/14 07:00:44;;;;;;;1999.90;999.90;;;-4.40;94.90;;;;;;4989793;28;20121;-75
2024/01/14 07:03:10;;;;;;;1999.90;999.90;;;-4.30;94.50;;;;;;4973240;28;20030;-75
2024/01/14 07:05:36;;;;;;;1999.90;999.90;;;-4.30;94.80;;;;;;4974976;28;20047;-74
2024/01/14 07:08:02;;;;;;;1999.90;999.90;;;-4.20;94.40;;;;;;4989373;28;20049;-74
2024/01/14 07:10:28;;;;;;;1999.90;999.90;;;-4.20;94.40;;;;;;4989004;28;20034;-75
2024/01/14 07:12:54;;;;;;;1999.90;999.90;;;-4.40;94.50;;;;;;4989451;28;20054;-75
2024/01/14 07:15:20;;;;;;;1999.90;999.90;;;-4.40;94.30;;;;;;4958195;28;20040;-75
2024/01/14 07:17:45;;;;;;;1999.90;999.90;;;-4.40;94.30;;;;;;4973493;28;20532;-75
2024/01/14 07:20:11;;;;;;;1999.90;999.90;;;-4.50;94.40;;;;;;4989152;28;20077;-75
2024/01/14 07:22:37;;;;;;;1999.90;999.90;;;-4.50;94.80;;;;;;4970139;28;20120;-76
2024/01/14 07:25:04;;;;;;;1999.90;999.90;;;-4.30;94.80;;;;;;4989974;28;20038;-75
2024/01/14 07:27:30;;;;;;;1999.90;999.90;;;-4.30;94.60;;;;;;4974039;28;20038;-76
2024/01/14 07:29:56;;;;;;;1999.90;999.90;;;-4.40;95.00;;;;;;4988848;28;20084;-76
2024/01/14 07:32:22;;;;;;;1999.90;999.90;;;-4.30;95.10;;;;;;4976603;28;20038;-76
2024/01/14 07:34:49;;;;;;;1999.90;999.90;;;-4.40;95.00;;;;;;4973791;28;20037;-75
2024/01/14 07:37:15;;;;;;;1999.90;999.90;;;-4.30;95.10;;;;;;4972582;28;20034;-76
2024/01/14 07:39:41;;;;;;;1999.90;999.90;;;-4.30;95.20;;;;;;4983838;28;20034;-76
2024/01/14 07:42:07;;;;;;;1999.90;999.90;;;-4.40;95.00;;;;;;4964897;28;20030;-76
2024/01/14 07:44:33;;;;;;;1999.90;999.90;;;-4.50;94.90;;;;;;4968798;28;20036;-75
2024/01/14 07:46:59;;;;;;;1999.90;999.90;;;-4.40;95.70;;;;;;4991503;28;20030;-76
2024/01/14 07:49:25;;;;;;;1999.90;999.90;;;-4.50;95.00;;;;;;4954979;28;20039;-75
2024/01/14 07:51:50;;;;;;;1999.90;999.90;;;-4.50;95.30;;;;;;4986365;28;20739;-75
2024/01/14 07:54:16;;;;;;;1999.90;999.90;;;-4.50;95.40;;;;;;4967333;28;20057;-76
2024/01/14 07:56:42;;;;;;;1999.90;999.90;;;-4.50;95.30;;;;;;4988085;28;20034;-76
2024/01/14 07:59:09;;;;;;;1999.90;999.90;;;-4.50;95.50;;;;;;4988785;28;20606;-75
2024/01/14 08:01:35;;;;;;;1999.90;999.90;;;-4.50;95.50;;;;;;4970696;28;20038;-76
2024/01/14 08:04:01;;;;;;;1999.90;999.90;;;-4.50;95.40;;;;;;4988311;28;20049;-76
2024/01/14 08:06:27;;;;;;;1999.90;999.90;;;-4.50;95.30;;;;;;4988855;28;20429;-75
2024/01/14 08:08:52;;;;;;;1999.90;999.90;;;-4.50;95.60;;;;;;4969126;28;20061;-76
2024/01/14 08:11:19;;;;;;;1999.90;999.90;;;-4.40;95.30;;;;;;4971219;28;20039;-75
2024/01/14 08:13:45;;;;;;;1999.90;999.90;;;-4.30;95.30;;;;;;4984664;28;20030;-75
2024/01/14 08:16:11;;;;;;;1999.90;999.90;;;-4.30;95.10;;;;;;4988290;28;20034;-75
2024/01/14 08:18:36;;;;;;;1999.90;999.90;;;-4.50;95.00;;;;;;4987836;28;20036;-76
2024/01/14 08:21:07;;;;;;;1999.90;999.90;;;-4.40;95.10;;;;;;4978325;28;20083;-75
2024/01/14 08:23:35;;;;;;;1999.90;999.90;;;-4.30;95.20;;;;;;4975633;28;20427;-75
2024/01/14 08:26:04;;;;;;;1999.90;999.90;;;-4.30;95.10;;;;;;4959239;28;21808;-75
2024/01/14 08:28:32;;;;;;;1999.90;999.90;;;-4.30;95.00;;;;;;4990207;28;20101;-76
2024/01/14 08:30:57;;;;;;;1999.90;999.90;;;-4.30;95.10;;;;;;4990040;28;20113;-75
2024/01/14 08:33:23;;;;;;;1999.90;999.90;;;-4.30;95.10;;;;;;4990783;28;20117;-75
2024/01/14 08:35:49;;;;;;;1999.90;999.90;;;-4.30;95.10;;;;;;4991281;28;20100;-75
2024/01/14 08:38:16;;;;;;;1999.90;999.90;;;-4.10;95.40;;;;;;4987990;28;20069;-76
2024/01/14 08:40:41;;;;;;;1999.90;999.90;;;-4.10;95.00;;;;;;4988897;28;20026;-76
2024/01/14 08:43:07;;;;;;;1999.90;999.90;;;-4.20;94.80;;;;;;4968215;28;20094;-75
2024/01/14 08:45:33;;;;;;;1999.90;999.90;;;-4.30;94.90;;;;;;4974428;28;20038;-75
2024/01/14 08:47:59;;;;;;;1999.90;999.90;;;-4.20;95.10;;;;;;4972561;28;20027;-75
2024/01/14 08:50:24;;;;;;;1999.90;999.90;;;-4.10;95.40;;;;;;4968758;28;20041;-75
2024/01/14 08:52:50;;;;;;;1999.90;999.90;;;-4.00;95.10;;;;;;4968564;28;20037;-75
2024/01/14 08:55:15;;;;;;;1999.90;999.90;;;-3.90;94.90;;;;;;4985500;28;20057;-75
2024/01/14 08:57:41;;;;;;;1999.90;999.90;;;-4.10;94.70;;;;;;4985186;28;20554;-76
2024/01/14 09:00:08;;;;;;;1999.90;999.90;;;-3.90;94.80;;;;;;4968822;28;20031;-76
2024/01/14 09:02:34;;;;;;;1999.90;999.90;;;-3.80;95.20;;;;;;4971086;28;20030;-76
2024/01/14 09:05:00;;;;;;;1999.90;999.90;;;-3.90;94.60;;;;;;4987618;28;20034;-75
2024/01/14 09:07:26;;;;;;;1999.90;999.90;;;-3.80;94.90;;;;;;4956498;28;20046;-75
2024/01/14 09:09:52;;;;;;;1999.90;999.90;;;-3.70;95.20;;;;;;4986327;28;20030;-76
2024/01/14 09:12:17;;;;;;;1999.90;999.90;;;-3.60;95.30;;;;;;4975935;28;20524;-77
2024/01/14 09:14:43;;;;;;;1999.90;999.90;;;-3.40;95.10;;;;;;4972461;28;20034;-77
2024/01/14 09:17:10;;;;;;;1999.90;999.90;;;-3.40;94.60;;;;;;4987083;28;20358;-77
2024/01/14 09:19:36;;;;;;;1999.90;999.90;;;-3.60;94.80;;;;;;4986959;28;20061;-75
2024/01/14 09:22:01;;;;;;;1999.90;999.90;;;-3.40;94.30;;;;;;4987512;28;20030;-76
2024/01/14 09:24:29;;;;;;;1999.90;999.90;;;-3.20;94.40;;;;;;4982353;28;20094;-76
2024/01/14 09:26:54;;;;;;;1999.90;999.90;;;-3.30;94.20;;;;;;4992687;28;20041;-76
2024/01/14 09:29:21;;;;;;;1999.90;999.90;;;-3.20;94.30;;;;;;4976065;28;20288;-76
2024/01/14 09:31:46;;;;;;;1999.90;999.90;;;-3.10;94.50;;;;;;4987430;28;20034;-76
2024/01/14 09:34:12;;;;;;;1999.90;999.90;;;-3.00;94.20;;;;;;4968909;28;20042;-76
2024/01/14 09:36:40;;;;;;;1999.90;999.90;;;-3.00;94.20;;;;;;4984911;28;20527;-75
2024/01/14 09:39:10;;;;;;;1999.90;999.90;;;-3.10;94.20;;;;;;4985810;28;20024;-75
2024/01/14 09:41:51;;;;;;;1999.90;999.90;;;-2.70;94.80;;;;;;4969328;28;20030;-76
2024/01/14 09:44:17;;;;;;;1999.90;999.90;;;-2.80;94.00;;;;;;4969916;28;20022;-75
2024/01/14 09:46:44;;;;;;;1999.90;999.90;;;-2.80;94.30;;;;;;4988771;28;20022;-76
2024/01/14 09:49:11;;;;;;;1999.90;999.90;;;-2.80;93.60;;;;;;4983412;28;20122;-76
2024/01/14 09:51:37;;;;;;;1999.90;999.90;;;-2.90;94.30;;;;;;4949593;28;20026;-76
2024/01/14 09:54:04;;;;;;;1999.90;999.90;;;-2.90;94.50;;;;;;4983718;28;20833;-75
2024/01/14 09:56:32;;;;;;;1999.90;999.90;;;-2.60;94.30;;;;;;4982347;28;20774;-75
2024/01/14 09:58:58;;;;;;;1999.90;999.90;;;-2.60;94.10;;;;;;4962403;28;20145;-76
2024/01/14 10:01:30;;;;;;;1999.90;999.90;;;-2.40;94.10;;;;;;4963673;28;20038;-75
2024/01/14 10:03:59;;;;;;;1999.90;999.90;;;-2.60;93.80;;;;;;4963842;28;20578;-75
2024/01/14 10:06:25;;;;;;;1999.90;999.90;;;-2.80;94.20;;;;;;4985422;28;20038;-76
2024/01/14 10:08:50;;;;;;;1999.90;999.90;;;-2.80;94.20;;;;;;4964806;28;20447;-76
2024/01/14 10:11:16;;;;;;;1999.90;999.90;;;-2.80;94.10;;;;;;4968770;28;20049;-77
2024/01/14 10:13:42;;;;;;;1999.90;999.90;;;-2.40;93.80;;;;;;4968275;28;20034;-76
2024/01/14 10:16:10;;;;;;;1999.90;999.90;;;-2.30;93.90;;;;;;4982538;28;20038;-76
2024/01/14 10:18:37;;;;;;;1999.90;999.90;;;-1.90;93.10;;;;;;4986026;28;20042;-75
2024/01/14 10:21:03;;;;;;;1999.90;999.90;;;-2.00;93.20;;;;;;4984443;28;20110;-75
2024/01/14 10:23:28;;;;;;;1999.90;999.90;;;-2.10;92.80;;;;;;4984839;28;20112;-76
2024/01/14 10:25:54;;;;;;;1999.90;999.90;;;-2.10;93.80;;;;;;4949439;28;20040;-75
2024/01/14 10:28:20;;;;;;;1999.90;999.90;;;-1.90;93.70;;;;;;4979722;28;20679;-74
2024/01/14 10:30:46;;;;;;;1999.90;999.90;;;-2.00;92.60;;;;;;4962347;28;20088;-75
2024/01/14 10:33:12;;;;;;;1999.90;999.90;;;-1.90;93.50;;;;;;4965769;28;20038;-73
2024/01/14 10:35:39;;;;;;;1999.90;999.90;;;-1.80;93.00;;;;;;4979278;28;20058;-73
2024/01/14 10:38:04;;;;;;;1999.90;999.90;;;-1.60;92.20;;;;;;4983358;28;20035;-74
2024/01/14 10:40:30;;;;;;;1999.90;999.90;;;-2.00;92.60;;;;;;4983642;28;20019;-74
2024/01/14 10:42:57;;;;;;;1999.90;999.90;;;-1.80;93.20;;;;;;4962432;28;20105;-75
2024/01/14 10:45:23;;;;;;;1999.90;999.90;;;-1.80;92.70;;;;;;4982259;28;20022;-74
2024/01/14 10:47:55;;;;;;;1999.90;999.90;;;-1.80;93.60;;;;;;4986990;28;20052;-75
2024/01/14 10:50:26;;;;;;;1999.90;999.90;;;-2.00;93.10;;;;;;4981275;28;20496;-75
2024/01/14 10:52:54;;;;;;;;;;;-2.00;93.00;;;;;;4941633;28;20030;-75
2024/01/14 10:55:34;;;;;;;1999.90;999.90;;;-2.00;92.80;;;;;;4979749;28;19990;-75
2024/01/14 10:58:03;;;;;;;1999.90;999.90;;;-2.00;93.30;;;;;;4983849;28;20031;-76
2024/01/14 11:00:34;;;;;;;1999.90;999.90;;;-1.90;93.20;;;;;;4984756;28;20055;-75
2024/01/14 11:03:04;;;;;;;1999.90;999.90;;;-2.00;92.60;;;;;;4984533;28;20037;-75
2024/01/14 11:05:33;;;;;;;1999.90;999.90;;;-1.90;92.20;;;;;;4969244;28;20109;-75
2024/01/14 11:08:00;;;;;;;1999.90;999.90;;;-1.80;93.10;;;;;;4985000;28;20030;-75
2024/01/14 11:10:26;;;;;;;1999.90;999.90;;;-1.60;92.10;;;;;;4986242;28;20069;-75
2024/01/14 11:13:15;;;;;;;1999.90;999.90;;;-1.50;91.70;;;;;;4942327;28;20034;-75
2024/01/14 11:15:54;;;;;;;1999.90;999.90;;;-1.70;92.30;;;;;;4984112;28;20109;-75
2024/01/14 11:18:26;;;;;;;1999.90;999.90;;;-1.80;92.20;;;;;;4985897;28;20045;-74
2024/01/14 11:21:20;;;;;;;1999.90;999.90;;;-2.20;92.10;;;;;;4989136;28;20196;-75
2024/01/14 11:23:47;;;;;;;1999.90;999.90;;;-2.20;92.20;;;;;;4989720;28;20030;-76
2024/01/14 11:26:12;;;;;;;1999.90;999.90;;;-1.90;93.00;;;;;;4990222;28;20570;-75
2024/01/14 11:28:43;;;;;;;1999.90;999.90;;;-2.10;91.60;;;;;;4966579;28;20030;-74
2024/01/14 11:31:08;;;;;;;1999.90;999.90;;;-2.30;92.80;;;;;;4955945;28;20045;-76
2024/01/14 11:33:46;;;;;;;1999.90;999.90;;;-2.30;93.00;;;;;;4986958;28;20046;-74
2024/01/14 11:36:13;;;;;;;1999.90;999.90;;;-2.00;92.70;;;;;;4993332;28;20030;-75
2024/01/14 11:38:44;;;;;;;1999.90;999.90;;;-2.00;92.80;;;;;;4989152;28;20441;-74
2024/01/14 11:41:30;;;;;;;1999.90;999.90;;;-1.90;93.00;;;;;;4986565;28;20030;-75
2024/01/14 11:43:59;;;;;;;1999.90;999.90;;;-1.80;93.20;;;;;;4990234;28;20050;-75
2024/01/14 11:46:48;;;;;;;1999.90;999.90;;;-2.00;92.80;;;;;;4988847;28;20019;-76
2024/01/14 11:49:23;;;;;;;1999.90;999.90;;;-1.90;92.10;;;;;;4989191;28;20065;-76
2024/01/14 11:51:51;;;;;;;1999.90;999.90;;;-2.10;92.90;;;;;;4987677;28;20035;-75
2024/01/14 11:54:17;;;;;;;1999.90;999.90;;;-2.20;93.20;;;;;;4992451;28;20053;-74
2024/01/14 11:56:43;;;;;;;1999.90;999.90;;;-2.00;93.60;;;;;;4983406;28;20034;-74
2024/01/14 11:59:13;;;;;;;1999.90;999.90;;;-1.80;93.50;;;;;;4970516;28;20038;-74